sensor_id;sensor_type;location;lat;lon;timestamp;pressure;altitude;pressure_sealevel;temperature;humidity
8318;BME280;4196;48.926;8.964;2022-09-21T00:02:30;99877.63;;;5.51;100.00
8318;BME280;4196;48.926;8.964;2022-09-21T00:05:17;99873.13;;;5.44;100.00
8318;BME280;4196;48.926;8.964;2022-09-21T00:08:05;99892.03;;;5.46;100.00
8318;BME280;4196;48.926;8.964;2022-09-21T00:10:51;99894.50;;;5.43;100.00
8318;BME280;4196;48.926;8.964;2022-09-21T00:13:38;99860.56;;;5.26;100.00
8318;BME280;4196;48.926;8.964;2022-09-21T00:16:25;99886.03;;;5.46;100.00
8318;BME280;4196;48.926;8.964;2022-09-21T00:19:12;99895.78;;;5.56;100.00
8318;BME280;4196;48.926;8.964;2022-09-21T00:21:58;99879.38;;;5.52;100.00
8318;BME280;4196;48.926;8.964;2022-09-21T00:24:44;99887.00;;;5.49;100.00
8318;BME280;4196;48.926;8.964;2022-09-21T00:27:31;99884.25;;;5.45;100.00
8318;BME280;4196;48.926;8.964;2022-09-21T00:30:17;99891.69;;;5.36;100.00
8318;BME280;4196;48.926;8.964;2022-09-21T00:33:04;99888.88;;;5.28;100.00
8318;BME280;4196;48.926;8.964;2022-09-21T00:35:50;99894.69;;;5.22;100.00
8318;BME280;4196;48.926;8.964;2022-09-21T00:38:37;99874.72;;;5.14;100.00
8318;BME280;4196;48.926;8.964;2022-09-21T00:41:24;99882.09;;;5.30;100.00
8318;BME280;4196;48.926;8.964;2022-09-21T00:44:27;99890.50;;;5.26;100.00
8318;BME280;4196;48.926;8.964;2022-09-21T00:47:16;99893.91;;;5.25;100.00
8318;BME280;4196;48.926;8.964;2022-09-21T00:50:08;99861.34;;;4.97;100.00
8318;BME280;4196;48.926;8.964;2022-09-21T00:52:57;99838.88;;;4.90;100.00
8318;BME280;4196;48.926;8.964;2022-09-21T00:55:46;99889.91;;;5.07;100.00
8318;BME280;4196;48.926;8.964;2022-09-21T00:58:39;99877.44;;;4.91;100.00
8318;BME280;4196;48.926;8.964;2022-09-21T01:01:27;99898.84;;;4.93;100.00
8318;BME280;4196;48.926;8.964;2022-09-21T01:04:14;99866.22;;;4.89;100.00
8318;BME280;4196;48.926;8.964;2022-09-21T01:07:05;99843.25;;;4.67;100.00
8318;BME280;4196;48.926;8.964;2022-09-21T01:09:54;99882.19;;;4.80;100.00
8318;BME280;4196;48.926;8.964;2022-09-21T01:13:12;99897.94;;;4.91;100.00
8318;BME280;4196;48.926;8.964;2022-09-21T01:16:14;99876.19;;;4.80;100.00
8318;BME280;4196;48.926;8.964;2022-09-21T01:25:41;99808.88;;;4.36;100.00
8318;BME280;4196;48.926;8.964;2022-09-21T01:29:11;99902.00;;;4.84;100.00
8318;BME280;4196;48.926;8.964;2022-09-21T01:32:09;99883.56;;;4.71;100.00
8318;BME280;4196;48.926;8.964;2022-09-21T01:34:59;99909.56;;;4.80;100.00
8318;BME280;4196;48.926;8.964;2022-09-21T01:37:52;99882.44;;;4.63;100.00
8318;BME280;4196;48.926;8.964;2022-09-21T01:40:46;99912.22;;;4.83;100.00
8318;BME280;4196;48.926;8.964;2022-09-21T01:43:38;99914.69;;;4.80;100.00
8318;BME280;4196;48.926;8.964;2022-09-21T01:46:28;99891.00;;;4.63;100.00
8318;BME280;4196;48.926;8.964;2022-09-21T01:49:20;99917.75;;;4.70;100.00
8318;BME280;4196;48.926;8.964;2022-09-21T01:52:14;99908.84;;;4.60;100.00
8318;BME280;4196;48.926;8.964;2022-09-21T01:55:08;99882.63;;;4.43;100.00
8318;BME280;4196;48.926;8.964;2022-09-21T01:58:01;99882.41;;;4.37;100.00
8318;BME280;4196;48.926;8.964;2022-09-21T02:00:53;99907.72;;;4.52;100.00
8318;BME280;4196;48.926;8.964;2022-09-21T02:03:47;99900.63;;;4.45;100.00
8318;BME280;4196;48.926;8.964;2022-09-21T02:06:40;99895.59;;;4.48;100.00
8318;BME280;4196;48.926;8.964;2022-09-21T02:09:27;99871.06;;;4.30;100.00
8318;BME280;4196;48.926;8.964;2022-09-21T02:12:14;99833.44;;;4.05;100.00
8318;BME280;4196;48.926;8.964;2022-09-21T02:15:05;99874.50;;;4.31;100.00
8318;BME280;4196;48.926;8.964;2022-09-21T02:18:34;99910.13;;;4.47;100.00
8318;BME280;4196;48.926;8.964;2022-09-21T02:21:31;99904.00;;;4.44;100.00
8318;BME280;4196;48.926;8.964;2022-09-21T02:24:41;99908.16;;;4.40;100.00
8318;BME280;4196;48.926;8.964;2022-09-21T02:27:53;99900.56;;;4.43;100.00
8318;BME280;4196;48.926;8.964;2022-09-21T02:30:50;99860.41;;;4.20;100.00
8318;BME280;4196;48.926;8.964;2022-09-21T02:38:00;99877.94;;;4.31;100.00
8318;BME280;4196;48.926;8.964;2022-09-21T02:40:27;99890.81;;;4.33;100.00
8318;BME280;4196;48.926;8.964;2022-09-21T02:43:25;99859.22;;;4.10;100.00
8318;BME280;4196;48.926;8.964;2022-09-21T02:46:26;99839.75;;;3.91;100.00
8318;BME280;4196;48.926;8.964;2022-09-21T02:49:22;99896.38;;;4.21;100.00
8318;BME280;4196;48.926;8.964;2022-09-21T02:52:13;99887.59;;;4.15;100.00
8318;BME280;4196;48.926;8.964;2022-09-21T02:55:02;99857.50;;;3.86;100.00
8318;BME280;4196;48.926;8.964;2022-09-21T02:57:49;99834.13;;;3.77;100.00
8318;BME280;4196;48.926;8.964;2022-09-21T03:00:35;99892.88;;;4.19;100.00
8318;BME280;4196;48.926;8.964;2022-09-21T03:03:23;99874.53;;;4.08;100.00
8318;BME280;4196;48.926;8.964;2022-09-21T03:06:10;99895.38;;;4.18;100.00
8318;BME280;4196;48.926;8.964;2022-09-21T03:08:56;99843.81;;;3.86;100.00
8318;BME280;4196;48.926;8.964;2022-09-21T03:11:43;99879.47;;;4.02;100.00
8318;BME280;4196;48.926;8.964;2022-09-21T03:14:30;99896.44;;;4.00;100.00
8318;BME280;4196;48.926;8.964;2022-09-21T03:17:18;99878.78;;;3.84;100.00
8318;BME280;4196;48.926;8.964;2022-09-21T03:20:05;99897.91;;;3.94;100.00
8318;BME280;4196;48.926;8.964;2022-09-21T03:22:53;99878.41;;;3.75;100.00
8318;BME280;4196;48.926;8.964;2022-09-21T03:25:43;99855.94;;;3.68;100.00
8318;BME280;4196;48.926;8.964;2022-09-21T03:28:29;99866.41;;;3.72;100.00
8318;BME280;4196;48.926;8.964;2022-09-21T03:31:16;99905.19;;;4.05;100.00
8318;BME280;4196;48.926;8.964;2022-09-21T03:34:02;99886.19;;;4.00;100.00
8318;BME280;4196;48.926;8.964;2022-09-21T03:36:49;99898.69;;;4.15;100.00
8318;BME280;4196;48.926;8.964;2022-09-21T03:39:35;99917.78;;;4.23;100.00
8318;BME280;4196;48.926;8.964;2022-09-21T03:42:21;99914.03;;;4.14;100.00
8318;BME280;4196;48.926;8.964;2022-09-21T03:45:09;99912.81;;;4.04;100.00
8318;BME280;4196;48.926;8.964;2022-09-21T03:47:57;99911.06;;;4.03;100.00
8318;BME280;4196;48.926;8.964;2022-09-21T03:50:44;99903.81;;;3.91;100.00
8318;BME280;4196;48.926;8.964;2022-09-21T03:53:30;99913.25;;;3.92;100.00
8318;BME280;4196;48.926;8.964;2022-09-21T03:56:16;99913.81;;;3.85;100.00
8318;BME280;4196;48.926;8.964;2022-09-21T03:59:03;99913.50;;;3.76;100.00
8318;BME280;4196;48.926;8.964;2022-09-21T04:01:49;99913.56;;;3.79;100.00
8318;BME280;4196;48.926;8.964;2022-09-21T04:04:36;99894.38;;;3.68;100.00
8318;BME280;4196;48.926;8.964;2022-09-21T04:07:22;99893.16;;;3.58;100.00
8318;BME280;4196;48.926;8.964;2022-09-21T04:10:10;99922.78;;;3.74;100.00
8318;BME280;4196;48.926;8.964;2022-09-21T04:13:00;99921.66;;;3.67;100.00
8318;BME280;4196;48.926;8.964;2022-09-21T04:15:48;99891.00;;;3.46;100.00
8318;BME280;4196;48.926;8.964;2022-09-21T04:18:35;99925.22;;;3.71;100.00
8318;BME280;4196;48.926;8.964;2022-09-21T04:21:23;99915.97;;;3.74;100.00
8318;BME280;4196;48.926;8.964;2022-09-21T04:24:09;99917.91;;;3.80;100.00
8318;BME280;4196;48.926;8.964;2022-09-21T04:26:55;99895.88;;;3.62;100.00
8318;BME280;4196;48.926;8.964;2022-09-21T04:29:43;99934.06;;;3.79;100.00
8318;BME280;4196;48.926;8.964;2022-09-21T04:32:29;99934.19;;;3.82;100.00
8318;BME280;4196;48.926;8.964;2022-09-21T04:35:16;99909.94;;;3.72;100.00
8318;BME280;4196;48.926;8.964;2022-09-21T04:38:02;99916.34;;;3.83;100.00
8318;BME280;4196;48.926;8.964;2022-09-21T04:40:58;99930.41;;;3.95;100.00
8318;BME280;4196;48.926;8.964;2022-09-21T04:43:45;99885.19;;;3.73;100.00
8318;BME280;4196;48.926;8.964;2022-09-21T04:46:32;99892.88;;;3.73;100.00
8318;BME280;4196;48.926;8.964;2022-09-21T04:49:18;99886.22;;;3.55;100.00
8318;BME280;4196;48.926;8.964;2022-09-21T04:52:05;99923.47;;;3.70;100.00
8318;BME280;4196;48.926;8.964;2022-09-21T04:54:51;99941.00;;;3.81;100.00
8318;BME280;4196;48.926;8.964;2022-09-21T04:57:38;99925.59;;;3.80;100.00
8318;BME280;4196;48.926;8.964;2022-09-21T05:00:25;99938.97;;;3.95;100.00
8318;BME280;4196;48.926;8.964;2022-09-21T05:03:11;99909.03;;;3.72;100.00
8318;BME280;4196;48.926;8.964;2022-09-21T05:05:58;99917.53;;;3.71;100.00
8318;BME280;4196;48.926;8.964;2022-09-21T05:08:45;99934.84;;;3.76;100.00
8318;BME280;4196;48.926;8.964;2022-09-21T05:11:50;99946.09;;;3.80;100.00
8318;BME280;4196;48.926;8.964;2022-09-21T05:14:37;99954.50;;;3.77;100.00
8318;BME280;4196;48.926;8.964;2022-09-21T05:17:23;99914.63;;;3.61;100.00
8318;BME280;4196;48.926;8.964;2022-09-21T05:20:10;99942.31;;;3.72;100.00
8318;BME280;4196;48.926;8.964;2022-09-21T05:22:59;99945.41;;;3.63;100.00
8318;BME280;4196;48.926;8.964;2022-09-21T05:25:46;99937.31;;;3.52;100.00
8318;BME280;4196;48.926;8.964;2022-09-21T05:28:33;99959.09;;;3.63;100.00
8318;BME280;4196;48.926;8.964;2022-09-21T05:37:58;99941.16;;;3.63;100.00
8318;BME280;4196;48.926;8.964;2022-09-21T05:40:47;99955.13;;;3.72;100.00
8318;BME280;4196;48.926;8.964;2022-09-21T05:43:35;99971.00;;;3.84;100.00
8318;BME280;4196;48.926;8.964;2022-09-21T05:49:57;99982.00;;;4.04;100.00
8318;BME280;4196;48.926;8.964;2022-09-21T05:52:52;99980.38;;;4.06;100.00
8318;BME280;4196;48.926;8.964;2022-09-21T06:01:59;99981.25;;;4.29;100.00
8318;BME280;4196;48.926;8.964;2022-09-21T06:04:49;99979.72;;;4.34;100.00
8318;BME280;4196;48.926;8.964;2022-09-21T06:07:37;99967.47;;;4.27;100.00
8318;BME280;4196;48.926;8.964;2022-09-21T06:10:23;99953.69;;;4.23;100.00
8318;BME280;4196;48.926;8.964;2022-09-21T06:13:10;99990.66;;;4.52;100.00
8318;BME280;4196;48.926;8.964;2022-09-21T06:15:56;99979.88;;;4.61;100.00
8318;BME280;4196;48.926;8.964;2022-09-21T06:18:46;99995.38;;;4.64;100.00
8318;BME280;4196;48.926;8.964;2022-09-21T06:21:33;99959.56;;;4.43;100.00
8318;BME280;4196;48.926;8.964;2022-09-21T06:24:19;99932.38;;;4.24;100.00
8318;BME280;4196;48.926;8.964;2022-09-21T06:27:09;99969.53;;;4.59;100.00
8318;BME280;4196;48.926;8.964;2022-09-21T06:29:56;100001.94;;;4.81;100.00
8318;BME280;4196;48.926;8.964;2022-09-21T06:32:43;99991.19;;;4.92;100.00
8318;BME280;4196;48.926;8.964;2022-09-21T06:35:33;99965.38;;;4.87;100.00
8318;BME280;4196;48.926;8.964;2022-09-21T06:38:22;99977.00;;;5.01;100.00
8318;BME280;4196;48.926;8.964;2022-09-21T06:41:09;99982.94;;;5.00;100.00
8318;BME280;4196;48.926;8.964;2022-09-21T06:43:56;99988.47;;;4.87;100.00
8318;BME280;4196;48.926;8.964;2022-09-21T06:46:44;99987.78;;;4.91;100.00
8318;BME280;4196;48.926;8.964;2022-09-21T06:49:30;99956.59;;;4.80;100.00
8318;BME280;4196;48.926;8.964;2022-09-21T06:52:17;99989.84;;;5.01;100.00
8318;BME280;4196;48.926;8.964;2022-09-21T06:55:05;99997.47;;;5.00;100.00
8318;BME280;4196;48.926;8.964;2022-09-21T06:57:51;99968.81;;;4.88;100.00
8318;BME280;4196;48.926;8.964;2022-09-21T07:00:38;99939.13;;;4.94;100.00
8318;BME280;4196;48.926;8.964;2022-09-21T07:03:24;99992.78;;;5.38;100.00
8318;BME280;4196;48.926;8.964;2022-09-21T07:06:10;99947.69;;;5.47;100.00
8318;BME280;4196;48.926;8.964;2022-09-21T07:08:59;99986.19;;;5.73;100.00
8318;BME280;4196;48.926;8.964;2022-09-21T07:12:07;99992.16;;;5.72;100.00
8318;BME280;4196;48.926;8.964;2022-09-21T07:14:54;99956.94;;;5.68;100.00
8318;BME280;4196;48.926;8.964;2022-09-21T07:17:40;99958.94;;;5.78;100.00
8318;BME280;4196;48.926;8.964;2022-09-21T07:20:28;99979.69;;;6.11;100.00
8318;BME280;4196;48.926;8.964;2022-09-21T07:23:17;99986.84;;;6.21;100.00
8318;BME280;4196;48.926;8.964;2022-09-21T07:26:10;99967.00;;;6.16;100.00
8318;BME280;4196;48.926;8.964;2022-09-21T07:28:57;99991.56;;;6.36;100.00
8318;BME280;4196;48.926;8.964;2022-09-21T07:31:43;99943.44;;;6.32;100.00
8318;BME280;4196;48.926;8.964;2022-09-21T07:34:34;99929.69;;;6.30;100.00
8318;BME280;4196;48.926;8.964;2022-09-21T07:37:20;99990.13;;;6.76;100.00
8318;BME280;4196;48.926;8.964;2022-09-21T07:40:08;100001.19;;;7.04;100.00
8318;BME280;4196;48.926;8.964;2022-09-21T07:42:59;99995.13;;;7.01;100.00
8318;BME280;4196;48.926;8.964;2022-09-21T07:45:53;99983.41;;;7.13;100.00
8318;BME280;4196;48.926;8.964;2022-09-21T07:48:43;99996.91;;;7.37;100.00
8318;BME280;4196;48.926;8.964;2022-09-21T07:51:30;99999.88;;;7.53;100.00
8318;BME280;4196;48.926;8.964;2022-09-21T07:54:17;99996.69;;;7.63;100.00
8318;BME280;4196;48.926;8.964;2022-09-21T07:57:03;100004.28;;;7.93;100.00
8318;BME280;4196;48.926;8.964;2022-09-21T08:00:08;99963.97;;;7.96;100.00
8318;BME280;4196;48.926;8.964;2022-09-21T08:02:58;100003.38;;;8.29;100.00
8318;BME280;4196;48.926;8.964;2022-09-21T08:05:46;99997.44;;;8.33;100.00
8318;BME280;4196;48.926;8.964;2022-09-21T08:08:32;99996.59;;;8.35;100.00
8318;BME280;4196;48.926;8.964;2022-09-21T08:11:20;100005.53;;;8.50;100.00
8318;BME280;4196;48.926;8.964;2022-09-21T08:14:08;100000.81;;;8.71;100.00
8318;BME280;4196;48.926;8.964;2022-09-21T08:16:55;99999.16;;;8.73;100.00
8318;BME280;4196;48.926;8.964;2022-09-21T08:19:41;100006.47;;;8.95;100.00
8318;BME280;4196;48.926;8.964;2022-09-21T08:22:27;99970.31;;;8.95;100.00
8318;BME280;4196;48.926;8.964;2022-09-21T08:25:13;99983.56;;;9.14;100.00
8318;BME280;4196;48.926;8.964;2022-09-21T08:28:00;99976.19;;;9.35;100.00
8318;BME280;4196;48.926;8.964;2022-09-21T08:30:52;99980.75;;;9.50;100.00
8318;BME280;4196;48.926;8.964;2022-09-21T08:33:39;99976.69;;;9.66;100.00
8318;BME280;4196;48.926;8.964;2022-09-21T08:36:25;99995.78;;;9.74;100.00
8318;BME280;4196;48.926;8.964;2022-09-21T08:39:12;99996.75;;;9.81;100.00
8318;BME280;4196;48.926;8.964;2022-09-21T08:45:32;99992.06;;;10.13;100.00
8318;BME280;4196;48.926;8.964;2022-09-21T08:48:23;99974.22;;;10.34;100.00
8318;BME280;4196;48.926;8.964;2022-09-21T08:51:20;99962.31;;;10.46;100.00
8318;BME280;4196;48.926;8.964;2022-09-21T08:54:15;99984.94;;;10.62;100.00
8318;BME280;4196;48.926;8.964;2022-09-21T08:57:16;99958.94;;;10.53;100.00
8318;BME280;4196;48.926;8.964;2022-09-21T09:00:06;99935.66;;;10.56;100.00
8318;BME280;4196;48.926;8.964;2022-09-21T09:06:33;99975.97;;;11.08;100.00
8318;BME280;4196;48.926;8.964;2022-09-21T09:12:48;99978.75;;;11.28;100.00
8318;BME280;4196;48.926;8.964;2022-09-21T09:15:57;99957.25;;;11.40;100.00
8318;BME280;4196;48.926;8.964;2022-09-21T09:22:14;99944.38;;;11.54;100.00
8318;BME280;4196;48.926;8.964;2022-09-21T09:25:05;99972.22;;;11.76;100.00
8318;BME280;4196;48.926;8.964;2022-09-21T09:28:09;99952.41;;;11.84;100.00
8318;BME280;4196;48.926;8.964;2022-09-21T09:31:15;99944.72;;;11.97;97.92
8318;BME280;4196;48.926;8.964;2022-09-21T09:37:08;99921.28;;;11.84;96.60
8318;BME280;4196;48.926;8.964;2022-09-21T09:39:56;99953.44;;;12.14;95.82
8318;BME280;4196;48.926;8.964;2022-09-21T09:43:02;99951.69;;;12.07;97.56
8318;BME280;4196;48.926;8.964;2022-09-21T09:46:00;99969.16;;;12.39;97.73
8318;BME280;4196;48.926;8.964;2022-09-21T09:51:54;99930.22;;;12.39;95.03
8318;BME280;4196;48.926;8.964;2022-09-21T09:54:40;99943.22;;;12.51;97.69
8318;BME280;4196;48.926;8.964;2022-09-21T09:57:29;99943.31;;;12.68;96.67
8318;BME280;4196;48.926;8.964;2022-09-21T10:00:18;99950.28;;;12.87;95.17
8318;BME280;4196;48.926;8.964;2022-09-21T10:03:14;99945.06;;;12.82;89.56
8318;BME280;4196;48.926;8.964;2022-09-21T10:06:02;99945.13;;;13.01;87.99
8318;BME280;4196;48.926;8.964;2022-09-21T10:08:48;99906.97;;;12.94;87.82
8318;BME280;4196;48.926;8.964;2022-09-21T10:11:36;99921.72;;;13.10;85.57
8318;BME280;4196;48.926;8.964;2022-09-21T10:14:24;99927.81;;;13.23;84.42
8318;BME280;4196;48.926;8.964;2022-09-21T10:17:15;99933.00;;;13.21;80.78
8318;BME280;4196;48.926;8.964;2022-09-21T10:20:05;99924.34;;;13.22;80.87
8318;BME280;4196;48.926;8.964;2022-09-21T10:22:53;99861.03;;;12.91;81.80
8318;BME280;4196;48.926;8.964;2022-09-21T10:25:40;99913.94;;;13.25;83.64
8318;BME280;4196;48.926;8.964;2022-09-21T10:28:27;99899.22;;;13.26;80.59
8318;BME280;4196;48.926;8.964;2022-09-21T10:31:21;99917.44;;;13.37;76.00
8318;BME280;4196;48.926;8.964;2022-09-21T10:34:13;99913.09;;;13.45;75.47
8318;BME280;4196;48.926;8.964;2022-09-21T10:37:04;99919.16;;;13.44;70.63
8318;BME280;4196;48.926;8.964;2022-09-21T10:46:09;99874.09;;;13.29;71.78
8318;BME280;4196;48.926;8.964;2022-09-21T10:48:57;99895.75;;;13.59;70.76
8318;BME280;4196;48.926;8.964;2022-09-21T10:51:44;99882.69;;;13.65;71.07
8318;BME280;4196;48.926;8.964;2022-09-21T10:54:32;99899.13;;;13.90;68.75
8318;BME280;4196;48.926;8.964;2022-09-21T10:57:21;99906.97;;;13.86;66.72
8318;BME280;4196;48.926;8.964;2022-09-21T11:09:08;99892.84;;;14.45;66.11
8318;BME280;4196;48.926;8.964;2022-09-21T11:21:54;99867.41;;;14.90;62.61
8318;BME280;4196;48.926;8.964;2022-09-21T11:24:52;99863.91;;;14.91;64.61
8318;BME280;4196;48.926;8.964;2022-09-21T11:27:44;99848.28;;;14.91;62.52
8318;BME280;4196;48.926;8.964;2022-09-21T11:30:45;99827.56;;;14.74;60.70
8318;BME280;4196;48.926;8.964;2022-09-21T11:37:59;99864.34;;;15.45;61.37
8318;BME280;4196;48.926;8.964;2022-09-21T11:41:02;99851.22;;;15.50;61.42
8318;BME280;4196;48.926;8.964;2022-09-21T11:50:38;99859.16;;;15.39;62.80
8318;BME280;4196;48.926;8.964;2022-09-21T11:56:58;99851.84;;;14.76;63.19
8318;BME280;4196;48.926;8.964;2022-09-21T12:06:48;99786.84;;;14.53;60.59
8318;BME280;4196;48.926;8.964;2022-09-21T12:09:53;99813.66;;;14.73;63.14
8318;BME280;4196;48.926;8.964;2022-09-21T12:12:49;99840.84;;;15.45;62.43
8318;BME280;4196;48.926;8.964;2022-09-21T12:22:10;99793.25;;;16.60;63.17
8318;BME280;4196;48.926;8.964;2022-09-21T12:25:10;99782.63;;;16.76;58.49
8318;BME280;4196;48.926;8.964;2022-09-21T12:30:48;99803.47;;;16.79;58.90
8318;BME280;4196;48.926;8.964;2022-09-21T12:33:41;99817.88;;;16.46;58.79
8318;BME280;4196;48.926;8.964;2022-09-21T12:36:34;99797.22;;;15.56;60.59
8318;BME280;4196;48.926;8.964;2022-09-21T12:39:37;99802.63;;;15.41;61.01
8318;BME280;4196;48.926;8.964;2022-09-21T12:42:39;99811.41;;;15.32;59.78
8318;BME280;4196;48.926;8.964;2022-09-21T12:45:31;99795.00;;;15.19;61.60
8318;BME280;4196;48.926;8.964;2022-09-21T12:48:33;99810.03;;;15.79;58.86
8318;BME280;4196;48.926;8.964;2022-09-21T12:51:29;99785.81;;;15.69;57.27
8318;BME280;4196;48.926;8.964;2022-09-21T12:57:44;99824.50;;;16.09;54.96
8318;BME280;4196;48.926;8.964;2022-09-21T13:01:09;99803.75;;;15.96;57.50
8318;BME280;4196;48.926;8.964;2022-09-21T13:13:46;99793.50;;;16.45;55.66
8318;BME280;4196;48.926;8.964;2022-09-21T13:16:38;99776.19;;;15.73;53.90
8318;BME280;4196;48.926;8.964;2022-09-21T13:19:28;99814.53;;;15.68;57.37
8318;BME280;4196;48.926;8.964;2022-09-21T13:25:17;99783.72;;;15.17;55.59
8318;BME280;4196;48.926;8.964;2022-09-21T13:34:41;99788.75;;;16.70;53.98
8318;BME280;4196;48.926;8.964;2022-09-21T13:37:28;99787.91;;;17.22;52.58
8318;BME280;4196;48.926;8.964;2022-09-21T13:43:15;99777.53;;;17.62;48.85
8318;BME280;4196;48.926;8.964;2022-09-21T13:46:02;99777.50;;;17.66;50.13
8318;BME280;4196;48.926;8.964;2022-09-21T13:48:52;99770.25;;;17.35;48.24
8318;BME280;4196;48.926;8.964;2022-09-21T13:55:01;99767.16;;;17.11;47.08
8318;BME280;4196;48.926;8.964;2022-09-21T13:57:50;99740.59;;;16.85;45.30
8318;BME280;4196;48.926;8.964;2022-09-21T14:00:42;99742.44;;;16.23;47.80
8318;BME280;4196;48.926;8.964;2022-09-21T14:03:39;99763.59;;;16.06;50.63
8318;BME280;4196;48.926;8.964;2022-09-21T14:06:33;99769.97;;;15.82;51.90
8318;BME280;4196;48.926;8.964;2022-09-21T14:09:30;99755.91;;;15.95;50.54
8318;BME280;4196;48.926;8.964;2022-09-21T14:12:20;99702.03;;;15.85;53.57
8318;BME280;4196;48.926;8.964;2022-09-21T14:18:33;99697.16;;;16.22;49.52
8318;BME280;4196;48.926;8.964;2022-09-21T14:21:21;99701.06;;;16.49;47.98
8318;BME280;4196;48.926;8.964;2022-09-21T14:24:18;99726.00;;;16.72;47.90
8318;BME280;4196;48.926;8.964;2022-09-21T14:30:24;99711.72;;;16.37;48.45
8318;BME280;4196;48.926;8.964;2022-09-21T14:33:21;99749.81;;;16.53;49.71
8318;BME280;4196;48.926;8.964;2022-09-21T14:36:15;99734.31;;;16.41;49.12
8318;BME280;4196;48.926;8.964;2022-09-21T14:39:05;99745.78;;;16.32;50.12
8318;BME280;4196;48.926;8.964;2022-09-21T14:42:08;99728.91;;;15.93;49.90
8318;BME280;4196;48.926;8.964;2022-09-21T14:44:58;99743.75;;;15.91;51.59
8318;BME280;4196;48.926;8.964;2022-09-21T14:50:56;99738.41;;;16.00;50.20
8318;BME280;4196;48.926;8.964;2022-09-21T14:54:02;99725.28;;;16.03;49.67
8318;BME280;4196;48.926;8.964;2022-09-21T14:57:04;99726.00;;;16.14;49.12
8318;BME280;4196;48.926;8.964;2022-09-21T15:00:05;99723.16;;;16.30;47.29
8318;BME280;4196;48.926;8.964;2022-09-21T15:13:01;99718.75;;;15.73;49.21
8318;BME280;4196;48.926;8.964;2022-09-21T15:16:08;99731.19;;;15.48;49.83
8318;BME280;4196;48.926;8.964;2022-09-21T15:19:12;99726.94;;;15.41;50.20
8318;BME280;4196;48.926;8.964;2022-09-21T15:22:13;99726.72;;;15.59;49.54
8318;BME280;4196;48.926;8.964;2022-09-21T15:25:03;99675.72;;;15.31;49.50
8318;BME280;4196;48.926;8.964;2022-09-21T15:27:51;99726.72;;;15.59;49.63
8318;BME280;4196;48.926;8.964;2022-09-21T15:30:41;99706.84;;;15.48;50.21
8318;BME280;4196;48.926;8.964;2022-09-21T15:33:30;99716.47;;;15.44;51.46
8318;BME280;4196;48.926;8.964;2022-09-21T15:36:25;99710.59;;;15.25;50.96
8318;BME280;4196;48.926;8.964;2022-09-21T15:39:27;99695.94;;;15.13;52.21
8318;BME280;4196;48.926;8.964;2022-09-21T15:42:19;99709.97;;;15.02;51.32
8318;BME280;4196;48.926;8.964;2022-09-21T15:45:17;99709.06;;;15.04;51.58
8318;BME280;4196;48.926;8.964;2022-09-21T15:48:05;99716.03;;;15.04;51.23
8318;BME280;4196;48.926;8.964;2022-09-21T15:51:08;99712.47;;;15.14;50.54
8318;BME280;4196;48.926;8.964;2022-09-21T15:54:33;99634.78;;;14.62;50.10
8318;BME280;4196;48.926;8.964;2022-09-21T15:57:38;99682.25;;;14.93;50.24
8318;BME280;4196;48.926;8.964;2022-09-21T16:00:29;99712.59;;;15.00;48.73
8318;BME280;4196;48.926;8.964;2022-09-21T16:03:18;99691.69;;;15.02;48.41
8318;BME280;4196;48.926;8.964;2022-09-21T16:15:26;99700.53;;;14.88;48.98
8318;BME280;4196;48.926;8.964;2022-09-21T16:24:18;99698.03;;;14.78;51.39
8318;BME280;4196;48.926;8.964;2022-09-21T16:27:15;99723.06;;;14.95;51.81
8318;BME280;4196;48.926;8.964;2022-09-21T16:30:02;99721.44;;;14.84;51.14
8318;BME280;4196;48.926;8.964;2022-09-21T16:32:49;99684.38;;;14.48;52.22
8318;BME280;4196;48.926;8.964;2022-09-21T16:35:37;99725.84;;;14.76;51.30
8318;BME280;4196;48.926;8.964;2022-09-21T16:38:25;99711.28;;;14.55;52.96
8318;BME280;4196;48.926;8.964;2022-09-21T16:41:12;99721.72;;;14.55;53.42
8318;BME280;4196;48.926;8.964;2022-09-21T16:44:02;99713.06;;;14.42;54.08
8318;BME280;4196;48.926;8.964;2022-09-21T16:46:54;99727.84;;;14.41;55.21
8318;BME280;4196;48.926;8.964;2022-09-21T16:49:41;99714.06;;;14.25;55.70
8318;BME280;4196;48.926;8.964;2022-09-21T16:52:29;99731.44;;;14.23;56.25
8318;BME280;4196;48.926;8.964;2022-09-21T16:55:15;99733.25;;;14.15;55.84
8318;BME280;4196;48.926;8.964;2022-09-21T16:58:02;99706.44;;;13.95;55.74
8318;BME280;4196;48.926;8.964;2022-09-21T17:00:51;99720.28;;;14.05;55.54
8318;BME280;4196;48.926;8.964;2022-09-21T17:03:46;99678.88;;;13.66;56.93
8318;BME280;4196;48.926;8.964;2022-09-21T17:06:32;99731.66;;;13.84;56.82
8318;BME280;4196;48.926;8.964;2022-09-21T17:09:33;99691.97;;;13.42;57.36
8318;BME280;4196;48.926;8.964;2022-09-21T17:12:20;99626.22;;;13.00;57.48
8318;BME280;4196;48.926;8.964;2022-09-21T17:15:10;99726.63;;;13.53;57.86
8318;BME280;4196;48.926;8.964;2022-09-21T17:17:57;99735.31;;;13.46;58.45
8318;BME280;4196;48.926;8.964;2022-09-21T17:20:44;99726.69;;;13.22;60.03
8318;BME280;4196;48.926;8.964;2022-09-21T17:23:30;99723.25;;;13.10;59.60
8318;BME280;4196;48.926;8.964;2022-09-21T17:26:17;99717.19;;;12.92;59.58
8318;BME280;4196;48.926;8.964;2022-09-21T17:29:18;99673.09;;;12.60;60.09
8318;BME280;4196;48.926;8.964;2022-09-21T17:32:09;99712.03;;;12.75;60.67
8318;BME280;4196;48.926;8.964;2022-09-21T17:35:09;99734.56;;;12.86;61.86
8318;BME280;4196;48.926;8.964;2022-09-21T17:37:59;99739.75;;;12.75;60.55
8318;BME280;4196;48.926;8.964;2022-09-21T17:40:46;99746.69;;;12.71;62.09
8318;BME280;4196;48.926;8.964;2022-09-21T17:46:49;99707.66;;;11.98;72.74
8318;BME280;4196;48.926;8.964;2022-09-21T17:49:37;99717.94;;;11.78;79.08
8318;BME280;4196;48.926;8.964;2022-09-21T17:52:23;99736.03;;;11.58;83.20
8318;BME280;4196;48.926;8.964;2022-09-21T17:55:29;99667.41;;;10.85;86.70
8318;BME280;4196;48.926;8.964;2022-09-21T18:01:57;99764.22;;;11.00;91.02
8318;BME280;4196;48.926;8.964;2022-09-21T18:04:37;99742.44;;;10.69;95.33
8318;BME280;4196;48.926;8.964;2022-09-21T18:07:24;99752.72;;;10.64;97.08
8318;BME280;4196;48.926;8.964;2022-09-21T18:10:11;99762.13;;;10.50;98.05
8318;BME280;4196;48.926;8.964;2022-09-21T18:16:54;99766.13;;;10.20;100.00
8318;BME280;4196;48.926;8.964;2022-09-21T18:19:57;99773.91;;;10.20;100.00
8318;BME280;4196;48.926;8.964;2022-09-21T18:25:59;99765.78;;;9.88;100.00
8318;BME280;4196;48.926;8.964;2022-09-21T18:28:47;99743.81;;;9.54;100.00
8318;BME280;4196;48.926;8.964;2022-09-21T18:31:53;99755.13;;;9.63;100.00
8318;BME280;4196;48.926;8.964;2022-09-21T18:35:04;99793.13;;;9.69;100.00